YRB weather

Resolute Bay Airport
Resolute Bay, Nunavut, Canada

Public forecast

Using degrees Celsius for public forecast. Weather courtesy of forecast.io.

METAR (pilot weather report)

Retrieved 2019/03/21 03:00 UTC (50 minutes ago):

CYRB 210300Z 32011KT 15SM IC SKC M34/M38 A2972 RMK SLP078

TAF (pilot weather forecast)

Forecast is more than 12 hours old.

Retrieved 2019/03/20 00:42 UTC (1 day ago):

TAF TAF CYRB 202338Z 2100/2124 32008KT P6SM IC FEW100 BECMG 2100/2102 36010KT RMK NXT FCST BY 210600Z